createdAt,value
2022-12-23T00:02:48.804Z,97661.67
2022-12-23T00:08:10.453Z,97663.88
2022-12-23T00:13:52.048Z,97668.14
2022-12-23T00:19:14.071Z,97668.34
2022-12-23T00:24:36.001Z,97676.87
2022-12-23T00:29:57.502Z,97674.45
2022-12-23T00:35:19.964Z,97672.89
2022-12-23T00:40:59.956Z,97679.14
2022-12-23T00:46:21.905Z,97683.73
2022-12-23T00:51:43.813Z,97674.92
2022-12-23T00:57:05.843Z,97668.05
2022-12-23T01:02:46.437Z,97663.73
2022-12-23T01:08:10.475Z,97673.58
2022-12-23T01:13:33.032Z,97671.48
2022-12-23T01:18:54.640Z,97665.84
2022-12-23T01:24:17.169Z,97663.17
2022-12-23T01:29:39.395Z,97669.76
2022-12-23T01:35:01.324Z,97670.75
2022-12-23T01:40:23.070Z,97668.35
2022-12-23T01:45:45.331Z,97674.60
2022-12-23T01:51:09.503Z,97680.52
2022-12-23T01:56:35.626Z,97683.06
2022-12-23T02:02:16.509Z,97690.82
2022-12-23T02:07:56.953Z,97692.88
2022-12-23T02:14:13.034Z,97692.58
2022-12-23T02:19:52.777Z,97687.91
2022-12-23T02:25:22.421Z,97696.77
2022-12-23T02:30:50.638Z,97704.13
2022-12-23T02:36:24.661Z,97704.52
2022-12-23T02:42:04.435Z,97699.13
2022-12-23T02:47:30.558Z,97695.60
2022-12-23T02:52:52.609Z,97695.50
2022-12-23T02:58:16.548Z,97696.23
2022-12-23T03:03:38.943Z,97688.30
2022-12-23T03:09:01.307Z,97689.56
2022-12-23T03:14:34.930Z,97692.66
2022-12-23T03:20:21.709Z,97694.23
2022-12-23T03:25:59.277Z,97686.20
2022-12-23T03:31:25.801Z,97684.88
2022-12-23T03:36:57.591Z,97684.00
2022-12-23T03:42:37.184Z,97685.85
2022-12-23T03:48:07.123Z,97685.79
2022-12-23T03:53:35.631Z,97677.48
2022-12-23T03:59:00.240Z,97681.61
2022-12-23T04:04:27.578Z,97680.75
2022-12-23T04:09:51.617Z,97672.55
2022-12-23T04:15:13.645Z,97659.46
2022-12-23T04:20:35.269Z,97653.80
2022-12-23T04:25:57.276Z,97653.95
2022-12-23T04:31:19.248Z,97654.52
2022-12-23T04:36:41.158Z,97648.23
2022-12-23T04:42:03.091Z,97643.14
2022-12-23T04:47:24.716Z,97650.76
2022-12-23T04:52:46.352Z,97654.34
2022-12-23T04:58:08.474Z,97653.51
2022-12-23T05:03:30.905Z,97654.56
2022-12-23T05:08:52.736Z,97647.99
2022-12-23T05:14:14.973Z,97643.80
2022-12-23T05:19:37.095Z,97644.94
2022-12-23T05:24:58.923Z,97645.67
2022-12-23T05:30:20.958Z,97643.88
2022-12-23T05:35:42.881Z,97634.20
2022-12-23T05:41:05.216Z,97634.02
2022-12-23T05:46:27.406Z,97631.41
2022-12-23T05:51:49.473Z,97631.21
2022-12-23T05:57:11.402Z,97623.83
2022-12-23T06:02:33.489Z,97620.30
2022-12-23T06:07:55.584Z,97624.48
2022-12-23T06:13:21.016Z,97622.88
2022-12-23T06:18:42.837Z,97627.26
2022-12-23T06:24:05.463Z,97636.75
2022-12-23T06:29:27.597Z,97632.30
2022-12-23T06:34:53.491Z,97631.16
2022-12-23T06:40:15.369Z,97632.06
2022-12-23T06:45:37.426Z,97632.08
2022-12-23T06:50:59.126Z,97641.62
2022-12-23T06:56:21.364Z,97645.20
2022-12-23T07:01:45.177Z,97639.87
2022-12-23T07:07:06.923Z,97642.52
2022-12-23T07:12:28.747Z,97649.80
2022-12-23T07:17:50.487Z,97650.19
2022-12-23T07:23:12.502Z,97652.30
2022-12-23T07:28:34.135Z,97651.73
2022-12-23T07:33:56.064Z,97658.12
2022-12-23T07:39:18.064Z,97656.60
2022-12-23T07:44:40.022Z,97650.88
2022-12-23T07:50:02.250Z,97647.70
2022-12-23T07:55:24.282Z,97638.75
2022-12-23T08:00:45.811Z,97632.58
2022-12-23T08:06:14.430Z,97631.91
2022-12-23T08:11:36.294Z,97635.01
2022-12-23T08:16:58.174Z,97630.64
2022-12-23T08:22:20.149Z,97621.33
2022-12-23T08:27:41.889Z,97612.64
2022-12-23T08:33:03.806Z,97613.55
2022-12-23T08:38:25.739Z,97615.61
2022-12-23T08:43:48.190Z,97613.95
2022-12-23T08:49:11.000Z,97610.93
2022-12-23T08:54:33.233Z,97602.16
2022-12-23T08:59:55.060Z,97600.95
2022-12-23T09:05:16.895Z,97590.83
2022-12-23T09:10:44.437Z,97586.30
2022-12-23T09:16:07.050Z,97586.48
2022-12-23T09:21:29.099Z,97577.86
2022-12-23T09:26:51.130Z,97572.29
2022-12-23T09:32:13.259Z,97561.77
2022-12-23T09:37:36.385Z,97549.85
2022-12-23T09:43:07.053Z,97542.06
2022-12-23T09:48:35.024Z,97538.71
2022-12-23T09:54:17.548Z,97535.50
2022-12-23T09:59:45.555Z,97523.95
2022-12-23T10:05:19.728Z,97521.81
2022-12-23T10:11:01.796Z,97515.23
2022-12-23T10:16:26.723Z,97516.29
2022-12-23T10:21:52.211Z,97522.98
2022-12-23T10:27:36.031Z,97518.38
2022-12-23T10:33:00.569Z,97512.08
2022-12-23T10:38:31.519Z,97520.85
2022-12-23T10:44:18.435Z,97516.63
2022-12-23T10:49:54.822Z,97515.59
2022-12-23T10:55:31.270Z,97515.27
2022-12-23T11:00:58.833Z,97518.23
2022-12-23T11:06:21.683Z,97519.73
2022-12-23T11:11:59.068Z,97525.33
2022-12-23T11:17:24.901Z,97530.09
2022-12-23T11:23:06.207Z,97526.35
2022-12-23T11:28:28.650Z,97524.10
2022-12-23T11:34:02.011Z,97530.77
2022-12-23T11:39:29.141Z,97521.18
2022-12-23T11:44:53.719Z,97516.73
2022-12-23T11:50:29.085Z,97512.81
2022-12-23T11:56:07.136Z,97515.35
2022-12-23T12:01:29.385Z,97512.45
2022-12-23T12:06:56.275Z,97512.97
2022-12-23T12:12:21.300Z,97518.44
2022-12-23T12:17:47.554Z,97512.83
2022-12-23T12:23:37.929Z,97509.61
2022-12-23T12:29:25.660Z,97514.95
2022-12-23T12:34:47.494Z,97516.52
2022-12-23T12:40:18.449Z,97526.44
2022-12-23T12:46:04.084Z,97524.28
2022-12-23T12:51:39.673Z,97524.80
2022-12-23T12:57:02.485Z,97531.45
2022-12-23T13:02:31.343Z,97531.33
2022-12-23T13:08:02.068Z,97536.98
2022-12-23T13:13:46.189Z,97543.33
2022-12-23T13:19:28.390Z,97546.95
2022-12-23T13:25:08.587Z,97545.94
2022-12-23T13:30:36.763Z,97553.48
2022-12-23T13:36:13.572Z,97555.56
2022-12-23T13:41:48.490Z,97561.73
2022-12-23T13:47:19.052Z,97568.23
2022-12-23T13:52:43.986Z,97566.32
2022-12-23T13:58:11.942Z,97570.55
2022-12-23T14:03:35.275Z,97566.58
2022-12-23T14:08:57.404Z,97572.22
2022-12-23T14:14:22.926Z,97582.94
2022-12-23T14:20:02.854Z,97590.84
2022-12-23T14:25:44.142Z,97593.92
2022-12-23T14:31:06.307Z,97588.48
2022-12-23T14:36:28.789Z,97585.86
2022-12-23T14:41:53.436Z,97583.86
2022-12-23T14:47:32.132Z,97594.42
2022-12-23T14:53:02.363Z,97588.30
2022-12-23T14:58:29.592Z,97587.69
2022-12-23T15:03:59.076Z,97594.51
2022-12-23T15:09:32.463Z,97598.09
2022-12-23T15:14:58.002Z,97591.33
2022-12-23T15:20:23.307Z,97597.88
2022-12-23T15:25:46.884Z,97599.52
2022-12-23T15:31:27.512Z,97599.54
2022-12-23T15:36:54.551Z,97601.48
2022-12-23T15:42:35.644Z,97598.63
2022-12-23T15:47:57.748Z,97595.25
2022-12-23T15:53:20.068Z,97597.14
2022-12-23T15:58:44.120Z,97599.33
2022-12-23T16:04:07.146Z,97598.37
2022-12-23T16:09:36.105Z,97601.94
2022-12-23T16:15:01.011Z,97594.36
2022-12-23T16:20:26.885Z,97593.93
2022-12-23T16:25:51.774Z,97588.70
2022-12-23T16:31:16.910Z,97580.25
2022-12-23T16:36:38.931Z,97575.41
2022-12-23T16:42:00.821Z,97583.87
2022-12-23T16:47:23.159Z,97577.04
2022-12-23T16:52:44.777Z,97565.42
2022-12-23T16:58:06.609Z,97568.48
2022-12-23T17:03:28.639Z,97568.87
2022-12-23T17:08:51.172Z,97566.96
2022-12-23T17:14:19.117Z,97568.83
2022-12-23T17:19:40.972Z,97568.27
2022-12-23T17:25:04.543Z,97580.55
2022-12-23T17:30:26.615Z,97588.40
2022-12-23T17:35:48.550Z,97594.40
2022-12-23T17:41:27.904Z,97597.16
2022-12-23T17:46:49.764Z,97600.59
2022-12-23T17:52:20.277Z,97600.14
2022-12-23T17:57:42.250Z,97598.61
2022-12-23T18:03:07.516Z,97600.35
2022-12-23T18:08:29.323Z,97601.89
2022-12-23T18:13:52.065Z,97605.30
2022-12-23T18:19:18.295Z,97609.02
2022-12-23T18:24:39.851Z,97609.75
2022-12-23T18:30:01.732Z,97613.04
2022-12-23T18:35:28.110Z,97613.40
2022-12-23T18:40:53.946Z,97609.10
2022-12-23T18:46:15.872Z,97611.31
2022-12-23T18:51:37.932Z,97601.06
2022-12-23T18:57:01.212Z,97603.08
2022-12-23T19:02:23.128Z,97603.55
2022-12-23T19:07:46.500Z,97600.14
2022-12-23T19:13:09.338Z,97601.38
2022-12-23T19:18:31.123Z,97605.52
2022-12-23T19:23:53.156Z,97606.74
2022-12-23T19:29:15.076Z,97609.20
2022-12-23T19:34:36.875Z,97601.35
2022-12-23T19:39:59.968Z,97598.30
2022-12-23T19:45:21.681Z,97595.24
2022-12-23T19:50:43.274Z,97607.88
2022-12-23T19:56:06.609Z,97610.12
2022-12-23T20:01:28.751Z,97603.49
2022-12-23T20:06:51.435Z,97593.13
2022-12-23T20:12:13.113Z,97581.51
2022-12-23T20:17:35.099Z,97559.49
2022-12-23T20:22:57.034Z,97559.52
2022-12-23T20:28:19.613Z,97553.60
2022-12-23T20:33:45.042Z,97545.96
2022-12-23T20:39:06.975Z,97540.32
2022-12-23T20:44:37.267Z,97542.52
2022-12-23T20:49:59.717Z,97542.35
2022-12-23T20:55:21.227Z,97544.10
2022-12-23T21:00:42.970Z,97541.70
2022-12-23T21:06:06.009Z,97532.84
2022-12-23T21:11:29.641Z,97530.33
2022-12-23T21:16:51.669Z,97529.83
2022-12-23T21:22:13.340Z,97531.56
2022-12-23T21:27:35.331Z,97522.36
2022-12-23T21:33:00.376Z,97533.25
2022-12-23T21:38:22.101Z,97528.45
2022-12-23T21:43:44.342Z,97527.09
2022-12-23T21:49:06.265Z,97525.77
2022-12-23T21:54:28.012Z,97526.47
2022-12-23T21:59:50.117Z,97523.61
2022-12-23T22:05:12.042Z,97523.51
2022-12-23T22:10:37.597Z,97511.73
2022-12-23T22:15:59.340Z,97508.00
2022-12-23T22:21:23.782Z,97509.04
2022-12-23T22:26:45.639Z,97504.09
2022-12-23T22:32:07.760Z,97496.92
2022-12-23T22:37:29.444Z,97500.04
2022-12-23T22:42:51.371Z,97502.77
2022-12-23T22:48:13.708Z,97496.27
2022-12-23T22:53:36.640Z,97495.95
2022-12-23T22:58:58.890Z,97497.64
2022-12-23T23:04:20.905Z,97498.52
2022-12-23T23:09:42.827Z,97499.23
2022-12-23T23:15:05.662Z,97476.14
2022-12-23T23:20:27.786Z,97467.66
2022-12-23T23:25:49.730Z,97461.46
2022-12-23T23:36:54.143Z,97454.23
2022-12-23T23:42:18.002Z,97449.79
2022-12-23T23:47:40.013Z,97440.91
2022-12-23T23:53:01.547Z,97431.39
2022-12-23T23:58:23.507Z,97427.30
